Time;durP1;ratioP1;P1;durP2;ratioP2;P2;SDS_P1;SDS_P2;PMS_P1;PMS_P2;Temp;Humidity;BMP_temperature;BMP_pressure;BME280_temperature;BME280_humidity;BME280_pressure;Samples;Min_cycle;Max_cycle;Signal;HPM_P1;HPM_P2
2023/09/04 00:01:38;;;;;;;8.90;5.30;;;;;;;14.21;100.00;97480.96;109920;1279;138626;-91
2023/09/04 00:04:06;;;;;;;8.60;5.30;;;;;;;14.21;100.00;97481.81;110076;1279;23083;-90
2023/09/04 00:06:32;;;;;;;7.00;5.70;;;;;;;14.22;100.00;97479.31;109941;1279;138466;-91
2023/09/04 00:08:59;;;;;;;8.40;6.10;;;;;;;14.21;100.00;97474.89;110026;1279;22439;-90
2023/09/04 00:11:26;;;;;;;6.50;4.90;;;;;;;14.21;100.00;97473.71;110020;1279;22206;-90
2023/09/04 00:13:52;;;;;;;7.80;5.60;;;;;;;14.21;100.00;97471.23;109930;1275;138511;-91
2023/09/04 00:16:19;;;;;;;10.70;5.50;;;;;;;14.21;100.00;97473.39;110007;1279;22251;-91
2023/09/04 00:18:45;;;;;;;8.40;5.80;;;;;;;14.22;100.00;97475.14;109939;1279;138564;-91
2023/09/04 00:21:12;;;;;;;6.10;5.50;;;;;;;14.21;100.00;97482.77;110051;1272;22261;-90
2023/09/04 00:23:39;;;;;;;6.40;5.80;;;;;;;14.17;100.00;97482.47;110069;1279;22231;-90
2023/09/04 00:26:05;;;;;;;6.30;5.60;;;;;;;14.18;100.00;97484.09;109967;1278;138470;-91
2023/09/04 00:28:31;;;;;;;8.10;5.60;;;;;;;14.18;100.00;97481.00;109953;1280;22147;-90
2023/09/04 00:30:57;;;;;;;6.60;5.80;;;;;;;14.19;100.00;97479.20;109906;1277;138645;-90
2023/09/04 00:33:23;;;;;;;6.10;5.50;;;;;;;14.21;100.00;97480.15;110052;1276;22212;-90
2023/09/04 00:35:49;;;;;;;6.90;6.00;;;;;;;14.20;100.00;97485.94;110140;1264;22242;-90
2023/09/04 00:38:16;;;;;;;6.00;5.40;;;;;;;14.19;100.00;97483.54;109927;1280;138274;-90
2023/09/04 00:40:42;;;;;;;5.20;4.70;;;;;;;14.16;100.00;97485.07;109963;1276;23108;-91
2023/09/04 00:43:08;;;;;;;6.80;5.80;;;;;;;14.16;100.00;97487.48;109924;1276;138720;-90
2023/09/04 00:45:35;;;;;;;6.60;5.80;;;;;;;14.19;100.00;97490.45;109992;1276;22220;-90
2023/09/04 00:48:03;;;;;;;7.00;6.40;;;;;;;14.20;100.00;97491.56;110079;1276;22199;-90
2023/09/04 00:50:29;;;;;;;8.90;5.80;;;;;;;14.22;100.00;97498.14;110120;1274;138139;-91
2023/09/04 00:52:58;;;;;;;7.60;6.80;;;;;;;14.23;100.00;97504.86;110092;1280;22275;-90
2023/09/04 00:55:24;;;;;;;9.80;6.50;;;;;;;14.22;100.00;97507.75;109991;1273;137966;-90
2023/09/04 00:57:51;;;;;;;7.40;6.60;;;;;;;14.21;100.00;97509.71;110024;1279;22206;-91
2023/09/04 01:00:22;;;;;;;8.30;7.00;;;;;;;14.20;100.00;97505.67;110071;1274;22273;-90
2023/09/04 01:02:48;;;;;;;7.00;6.30;;;;;;;14.19;100.00;97503.33;109831;1279;138588;-91
2023/09/04 01:05:15;;;;;;;7.70;6.30;;;;;;;14.19;100.00;97502.32;110015;1276;22214;-91
2023/09/04 01:07:41;;;;;;;7.00;6.30;;;;;;;14.19;100.00;97504.21;109918;1276;138304;-90
2023/09/04 01:10:11;;;;;;;8.30;6.20;;;;;;;14.19;100.00;97509.24;110054;1277;22704;-91
2023/09/04 01:12:47;;;;;;;8.00;6.00;;;;;;;14.20;100.00;97509.90;109978;1277;138336;-91
2023/09/04 01:15:13;;;;;;;8.50;6.30;;;;;;;14.19;100.00;97505.46;110018;1280;22895;-90
2023/09/04 01:17:40;;;;;;;8.00;5.40;;;;;;;14.19;100.00;97503.96;110090;1280;22209;-91
2023/09/04 01:20:33;;;;;;;13.20;6.20;;;;;;;14.19;100.00;97507.42;109954;1274;138325;-91
2023/09/04 01:22:59;;;;;;;9.40;6.00;;;;;;;14.18;100.00;97506.77;110061;1273;22233;-91
2023/09/04 01:25:35;;;;;;;7.70;7.00;;;;;;;14.19;100.00;97508.92;109941;1272;138354;-91
2023/09/04 01:28:20;;;;;;;6.70;5.90;;;;;;;14.20;100.00;97511.78;109991;1273;22210;-90
2023/09/04 01:30:55;;;;;;;6.90;6.10;;;;;;;14.19;100.00;97519.70;109933;1278;138327;-91
2023/09/04 01:33:24;;;;;;;9.60;6.70;;;;;;;14.19;100.00;97523.40;109980;1270;23177;-91
2023/09/04 01:35:50;;;;;;;9.40;7.00;;;;;;;14.21;100.00;97525.04;110027;1272;22250;-91
2023/09/04 01:38:17;;;;;;;7.50;6.50;;;;;;;14.23;100.00;97526.95;110048;1273;138437;-90
2023/09/04 01:40:43;;;;;;;8.70;7.30;;;;;;;14.23;100.00;97530.54;110040;1277;23066;-91
2023/09/04 01:43:09;;;;;;;9.60;7.50;;;;;;;14.23;100.00;97530.96;109941;1275;138220;-91
2023/09/04 01:45:35;;;;;;;9.80;7.10;;;;;;;14.22;100.00;97532.27;110058;1276;22325;-91
2023/09/04 01:48:02;;;;;;;10.10;6.90;;;;;;;14.23;100.00;97534.79;110062;1273;23303;-91
2023/09/04 01:50:29;;;;;;;8.30;7.00;;;;;;;14.23;100.00;97535.48;109918;1279;138332;-89
2023/09/04 01:52:55;;;;;;;11.00;7.50;;;;;;;14.22;100.00;97534.88;110103;1274;22225;-91
2023/09/04 01:55:23;;;;;;;8.00;6.90;;;;;;;14.24;100.00;97535.02;109990;1273;138346;-92
2023/09/04 01:57:49;;;;;;;9.30;7.10;;;;;;;14.23;100.00;97528.81;110046;1273;23180;-92
2023/09/04 02:00:16;;;;;;;8.40;6.90;;;;;;;14.22;100.00;97525.45;110044;1278;22439;-90
2023/09/04 02:02:42;;;;;;;10.40;7.50;;;;;;;14.24;100.00;97523.55;109881;1275;138662;-91
2023/09/04 02:05:08;;;;;;;8.20;7.50;;;;;;;14.25;100.00;97518.83;110033;1274;22216;-91
2023/09/04 02:07:34;;;;;;;8.50;7.50;;;;;;;14.26;100.00;97518.39;109880;1277;137979;-91
2023/09/04 02:10:00;;;;;;;8.40;7.20;;;;;;;14.24;100.00;97523.79;110143;1273;22192;-91
2023/09/04 02:12:27;;;;;;;8.20;7.40;;;;;;;14.23;100.00;97525.14;109978;1279;22339;-91
2023/09/04 02:14:53;;;;;;;9.60;7.10;;;;;;;14.23;100.00;97526.98;109918;1276;137803;-91
2023/09/04 02:17:19;;;;;;;8.50;7.50;;;;;;;14.24;100.00;97527.89;110108;1279;22248;-91
2023/09/04 02:19:46;;;;;;;8.10;7.40;;;;;;;14.22;100.00;97526.30;109875;1276;137876;-91
2023/09/04 02:22:12;;;;;;;8.30;7.40;;;;;;;14.22;100.00;97530.16;110080;1273;22397;-90
2023/09/04 02:24:38;;;;;;;7.70;6.70;;;;;;;14.21;100.00;97528.41;109926;1276;139130;-91
2023/09/04 02:27:05;;;;;;;8.70;6.30;;;;;;;14.19;100.00;97533.85;110012;1276;23064;-90
2023/09/04 02:29:31;;;;;;;8.10;6.70;;;;;;;14.17;100.00;97534.23;109980;1279;22256;-91
2023/09/04 02:31:58;;;;;;;7.20;6.50;;;;;;;14.16;100.00;97533.68;109869;1279;138177;-91
2023/09/04 02:34:24;;;;;;;8.70;7.00;;;;;;;14.15;100.00;97531.55;110024;1276;22350;-90
2023/09/04 02:36:51;;;;;;;7.10;6.40;;;;;;;14.16;100.00;97537.40;109941;1267;138442;-91
2023/09/04 02:39:17;;;;;;;8.40;6.70;;;;;;;14.14;100.00;97536.48;110061;1276;22219;-91
2023/09/04 02:41:43;;;;;;;7.10;6.10;;;;;;;14.15;100.00;97532.56;110097;1274;22190;-91
2023/09/04 02:44:09;;;;;;;8.70;6.40;;;;;;;14.13;100.00;97525.25;110012;1274;138237;-91
2023/09/04 02:46:35;;;;;;;7.40;6.70;;;;;;;14.11;100.00;97521.00;109997;1272;22121;-90
2023/09/04 02:49:02;;;;;;;7.20;6.50;;;;;;;14.10;100.00;97523.48;109927;1279;138521;-91
2023/09/04 02:51:28;;;;;;;6.80;6.20;;;;;;;14.08;100.00;97523.20;110064;1279;22211;-90
2023/09/04 02:53:54;;;;;;;8.90;6.70;;;;;;;14.06;100.00;97521.02;109999;1279;22255;-90
2023/09/04 02:56:20;;;;;;;7.30;6.30;;;;;;;14.05;100.00;97525.46;110075;1279;138320;-91
2023/09/04 02:58:46;;;;;;;8.90;6.40;;;;;;;14.07;100.00;97523.39;110129;1272;22244;-90
2023/09/04 03:01:15;;;;;;;7.60;6.70;;;;;;;14.05;100.00;97523.73;109983;1267;138547;-91
2023/09/04 03:03:42;;;;;;;7.60;6.70;;;;;;;14.05;100.00;97525.92;109983;1279;22194;-90
2023/09/04 03:06:09;;;;;;;8.00;6.50;;;;;;;14.02;100.00;97528.38;110164;1274;22205;-91
2023/09/04 03:08:35;;;;;;;8.50;6.50;;;;;;;14.02;100.00;97525.56;109990;1272;138380;-91
2023/09/04 03:11:02;;;;;;;7.50;6.70;;;;;;;14.01;100.00;97529.98;110037;1276;22222;-90
2023/09/04 03:13:28;;;;;;;7.40;6.70;;;;;;;13.99;100.00;97538.80;109973;1276;138064;-91
2023/09/04 03:15:54;;;;;;;8.50;6.60;;;;;;;13.97;100.00;97544.32;109966;1280;22318;-91
2023/09/04 03:18:20;;;;;;;7.10;6.50;;;;;;;13.98;100.00;97550.13;110039;1278;22217;-91
2023/09/04 03:20:47;;;;;;;9.40;6.60;;;;;;;13.98;100.00;97550.52;109981;1273;138292;-90
2023/09/04 03:23:13;;;;;;;8.10;6.60;;;;;;;13.99;100.00;97549.58;110086;1279;22241;-90
2023/09/04 03:25:39;;;;;;;7.30;6.40;;;;;;;14.00;100.00;97547.92;109908;1271;138955;-91
2023/09/04 03:28:06;;;;;;;7.30;6.20;;;;;;;14.00;100.00;97547.89;110019;1279;22219;-91
2023/09/04 03:30:33;;;;;;;9.50;7.00;;;;;;;13.99;100.00;97549.23;109956;1273;138202;-90
2023/09/04 03:33:00;;;;;;;7.60;6.90;;;;;;;13.94;100.00;97551.14;110033;1279;22198;-91
2023/09/04 03:35:26;;;;;;;7.70;6.70;;;;;;;13.91;100.00;97551.73;110019;1276;22193;-91
2023/09/04 03:37:52;;;;;;;7.60;6.80;;;;;;;13.90;100.00;97547.63;109961;1277;137863;-91
2023/09/04 03:40:23;;;;;;;7.30;6.60;;;;;;;13.90;100.00;97550.59;110027;1279;22826;-91
2023/09/04 03:42:53;;;;;;;8.10;6.80;;;;;;;13.89;100.00;97549.98;109999;1279;138542;-91
2023/09/04 03:45:19;;;;;;;10.90;7.50;;;;;;;13.90;100.00;97556.70;110026;1271;22413;-90
2023/09/04 03:47:46;;;;;;;7.80;7.00;;;;;;;13.90;100.00;97554.94;110040;1276;22254;-90
2023/09/04 03:50:12;;;;;;;10.80;6.80;;;;;;;13.89;100.00;97556.13;109886;1279;138585;-91
2023/09/04 03:52:39;;;;;;;8.80;6.90;;;;;;;13.88;100.00;97559.48;109950;1273;22253;-91
2023/09/04 03:55:09;;;;;;;10.10;7.20;;;;;;;13.90;100.00;97560.73;109974;1279;138936;-91
2023/09/04 03:57:36;;;;;;;7.70;6.10;;;;;;;13.92;100.00;97561.04;109966;1279;22319;-90
2023/09/04 04:00:14;;;;;;;6.70;5.80;;;;;;;13.92;100.00;97564.45;109962;1271;22183;-90
2023/09/04 04:02:41;;;;;;;7.50;6.40;;;;;;;13.88;100.00;97565.18;109978;1275;137218;-91
2023/09/04 04:05:09;;;;;;;7.10;6.40;;;;;;;13.82;100.00;97557.85;109984;1278;22244;-91
2023/09/04 04:07:35;;;;;;;8.40;6.10;;;;;;;13.82;100.00;97559.65;109944;1277;138304;-90
2023/09/04 04:10:01;;;;;;;8.00;6.40;;;;;;;13.82;100.00;97561.70;109998;1276;22232;-90
2023/09/04 04:12:27;;;;;;;8.30;5.90;;;;;;;13.82;100.00;97557.20;109971;1279;22462;-91
2023/09/04 04:14:54;;;;;;;7.60;6.60;;;;;;;13.79;100.00;97557.55;109949;1271;137718;-91
2023/09/04 04:17:20;;;;;;;8.50;6.70;;;;;;;13.75;100.00;97557.55;110031;1277;22357;-91
2023/09/04 04:19:49;;;;;;;8.90;6.30;;;;;;;13.75;100.00;97558.60;110090;1278;138295;-91
2023/09/04 04:22:15;;;;;;;7.50;6.70;;;;;;;13.75;100.00;97563.71;110108;1272;22239;-91
2023/09/04 04:24:41;;;;;;;7.80;6.40;;;;;;;13.75;100.00;97577.16;109965;1274;138296;-91
2023/09/04 04:27:08;;;;;;;7.70;6.20;;;;;;;13.75;100.00;97586.90;110131;1270;22988;-91
2023/09/04 04:29:35;;;;;;;7.10;6.40;;;;;;;13.74;100.00;97585.34;110070;1276;22315;-91
2023/09/04 04:32:01;;;;;;;7.50;6.60;;;;;;;13.75;100.00;97587.09;109921;1278;138413;-91
2023/09/04 04:34:27;;;;;;;7.00;6.30;;;;;;;13.75;100.00;97592.80;110052;1273;22355;-91
2023/09/04 04:36:55;;;;;;;9.40;6.80;;;;;;;13.74;100.00;97592.23;109990;1274;138312;-91
2023/09/04 04:39:22;;;;;;;9.80;5.70;;;;;;;13.74;100.00;97592.95;109970;1280;22699;-91
2023/09/04 04:41:48;;;;;;;6.10;5.50;;;;;;;13.75;100.00;97594.27;110045;1274;22225;-90
2023/09/04 04:44:14;;;;;;;8.10;6.00;;;;;;;13.75;100.00;97594.57;109986;1278;137832;-91
2023/09/04 04:46:41;;;;;;;8.50;5.80;;;;;;;13.75;100.00;97602.73;109990;1279;22570;-91
2023/09/04 04:49:09;;;;;;;9.50;5.90;;;;;;;13.77;100.00;97603.95;109934;1279;138828;-91
2023/09/04 04:51:35;;;;;;;6.60;5.30;;;;;;;13.77;100.00;97605.69;110072;1274;22089;-90
2023/09/04 04:54:01;;;;;;;6.10;5.30;;;;;;;13.76;100.00;97605.80;110152;1270;22222;-91
2023/09/04 04:56:27;;;;;;;9.80;6.50;;;;;;;13.77;100.00;97609.15;109969;1278;139428;-91
2023/09/04 04:58:53;;;;;;;7.50;5.60;;;;;;;13.77;100.00;97611.73;110163;1278;23046;-91
2023/09/04 05:01:20;;;;;;;9.10;6.30;;;;;;;13.76;100.00;97614.19;110083;1278;138328;-90
2023/09/04 05:03:46;;;;;;;8.50;6.30;;;;;;;13.73;100.00;97621.06;110063;1275;22245;-91
2023/09/04 05:06:12;;;;;;;8.40;6.10;;;;;;;13.73;100.00;97624.46;110026;1280;22649;-91
2023/09/04 05:08:38;;;;;;;9.60;6.00;;;;;;;13.72;100.00;97627.73;109997;1275;139952;-91
2023/09/04 05:11:05;;;;;;;7.30;5.80;;;;;;;13.72;100.00;97632.53;110019;1274;22206;-91
2023/09/04 05:13:31;;;;;;;7.00;6.00;;;;;;;13.71;100.00;97634.73;109862;1278;138219;-90
2023/09/04 05:16:03;;;;;;;7.30;6.10;;;;;;;13.71;100.00;97634.52;109989;1279;22204;-90
2023/09/04 05:18:30;;;;;;;7.20;6.50;;;;;;;13.72;100.00;97639.97;110153;1273;23664;-91
2023/09/04 05:20:56;;;;;;;6.70;6.00;;;;;;;13.73;100.00;97645.48;110179;1271;22412;-91
2023/09/04 05:23:23;;;;;;;7.00;5.60;;;;;;;13.74;100.00;97646.08;110028;1273;23061;-91
2023/09/04 05:25:49;;;;;;;8.50;6.70;;;;;;;13.72;100.00;97652.21;109903;1274;138019;-91
2023/09/04 05:28:15;;;;;;;9.80;6.10;;;;;;;13.68;100.00;97652.70;110114;1279;22838;-91
2023/09/04 05:30:42;;;;;;;8.20;6.30;;;;;;;13.63;100.00;97647.80;109898;1276;139204;-90
2023/09/04 05:33:08;;;;;;;5.60;5.00;;;;;;;13.60;100.00;97642.25;110001;1280;22225;-91
2023/09/04 05:35:35;;;;;;;6.90;5.30;;;;;;;13.59;100.00;97638.08;110131;1273;22980;-90
2023/09/04 05:38:01;;;;;;;7.50;5.80;;;;;;;13.60;100.00;97636.54;110116;1271;138752;-90
2023/09/04 05:40:28;;;;;;;6.80;5.70;;;;;;;13.66;100.00;97631.16;109987;1272;22466;-90
2023/09/04 05:42:54;;;;;;;8.30;6.30;;;;;;;13.69;100.00;97635.13;109899;1271;138178;-91
2023/09/04 05:45:21;;;;;;;7.10;6.30;;;;;;;13.66;100.00;97642.09;110093;1276;22371;-90
2023/09/04 05:47:47;;;;;;;10.10;6.50;;;;;;;13.64;100.00;97645.30;109993;1280;22265;-91
2023/09/04 05:50:13;;;;;;;9.30;6.30;;;;;;;13.65;100.00;97647.48;109842;1280;138376;-91
2023/09/04 05:52:40;;;;;;;7.50;6.70;;;;;;;13.67;100.00;97653.81;110121;1275;22233;-91
2023/09/04 05:55:07;;;;;;;10.10;7.10;;;;;;;13.67;100.00;97653.46;110058;1277;138777;-91
2023/09/04 05:57:34;;;;;;;7.10;6.40;;;;;;;13.69;100.00;97656.06;110047;1278;22128;-91
2023/09/04 06:00:00;;;;;;;7.70;6.20;;;;;;;13.68;100.00;97657.70;110115;1278;22194;-91
2023/09/04 06:02:27;;;;;;;7.10;5.70;;;;;;;13.70;100.00;97655.64;110011;1271;138179;-91
2023/09/04 06:04:53;;;;;;;7.30;6.00;;;;;;;13.72;100.00;97654.47;109972;1276;22322;-91
2023/09/04 06:07:19;;;;;;;10.30;6.00;;;;;;;13.75;100.00;97655.50;110003;1279;138079;-91
2023/09/04 06:09:46;;;;;;;10.70;6.70;;;;;;;13.77;100.00;97654.97;110058;1278;22184;-90
2023/09/04 06:12:12;;;;;;;9.00;6.20;;;;;;;13.77;100.00;97651.83;110092;1280;22240;-91
2023/09/04 06:14:38;;;;;;;9.10;6.30;;;;;;;13.76;100.00;97653.47;109948;1270;138725;-90
2023/09/04 06:17:04;;;;;;;6.30;5.70;;;;;;;13.77;100.00;97652.03;110020;1276;22136;-90
2023/09/04 06:19:30;;;;;;;8.20;6.10;;;;;;;13.77;100.00;97651.63;109927;1274;138266;-91
2023/09/04 06:21:57;;;;;;;7.20;6.00;;;;;;;13.79;100.00;97646.07;109998;1279;22152;-91
2023/09/04 06:24:23;;;;;;;8.40;5.90;;;;;;;13.80;100.00;97639.95;110170;1273;22217;-91
2023/09/04 06:26:50;;;;;;;9.70;6.20;;;;;;;13.82;100.00;97641.13;109948;1273;138432;-91
2023/09/04 06:29:16;;;;;;;8.70;6.30;;;;;;;13.86;100.00;97643.08;110135;1273;23083;-91
2023/09/04 06:31:42;;;;;;;8.50;6.20;;;;;;;13.86;100.00;97643.86;109929;1279;138147;-90
2023/09/04 06:34:08;;;;;;;7.00;5.80;;;;;;;13.87;100.00;97645.04;110136;1271;22626;-91
2023/09/04 06:36:35;;;;;;;8.30;5.40;;;;;;;13.85;100.00;97644.88;110174;1272;138097;-90
2023/09/04 06:39:06;;;;;;;10.40;6.50;;;;;;;13.86;100.00;97647.79;110058;1275;22491;-91
2023/09/04 06:41:32;;;;;;;6.40;5.80;;;;;;;13.87;100.00;97651.95;110084;1274;22189;-91
2023/09/04 06:43:59;;;;;;;7.50;6.50;;;;;;;13.88;100.00;97657.44;109969;1274;138119;-92
2023/09/04 06:46:25;;;;;;;9.40;6.00;;;;;;;13.88;100.00;97659.33;110004;1276;23243;-90
2023/09/04 06:48:52;;;;;;;9.30;5.80;;;;;;;13.92;100.00;97654.05;110016;1273;138657;-90
2023/09/04 06:51:18;;;;;;;9.40;6.00;;;;;;;13.93;100.00;97655.58;110011;1275;22249;-91
2023/09/04 06:53:44;;;;;;;8.50;6.30;;;;;;;13.94;100.00;97659.91;110057;1275;22333;-91
2023/09/04 06:56:10;;;;;;;11.90;7.10;;;;;;;13.95;100.00;97655.56;109963;1274;139148;-91
2023/09/04 06:58:37;;;;;;;11.30;6.60;;;;;;;13.98;100.00;97651.42;110054;1278;22541;-91
2023/09/04 07:01:03;;;;;;;8.90;6.60;;;;;;;14.00;100.00;97651.77;109962;1275;137859;-90
2023/09/04 07:03:29;;;;;;;9.80;7.30;;;;;;;14.02;100.00;97657.79;110080;1274;22279;-91
2023/09/04 07:05:56;;;;;;;13.20;8.30;;;;;;;14.03;100.00;97659.23;110077;1280;22230;-90
2023/09/04 07:08:22;;;;;;;8.50;7.10;;;;;;;14.02;100.00;97655.48;109998;1280;138608;-91
2023/09/04 07:10:49;;;;;;;9.00;7.70;;;;;;;14.04;100.00;97655.06;110055;1276;22377;-90
2023/09/04 07:13:15;;;;;;;10.60;6.80;;;;;;;14.06;100.00;97659.59;109882;1275;138330;-91
2023/09/04 07:15:41;;;;;;;7.60;6.10;;;;;;;14.07;100.00;97654.73;109964;1280;22273;-91
2023/09/04 07:18:08;;;;;;;6.80;6.00;;;;;;;14.09;100.00;97649.67;110194;1272;22483;-91
2023/09/04 07:20:34;;;;;;;9.40;6.90;;;;;;;14.10;100.00;97644.86;109960;1273;138236;-91
2023/09/04 07:23:01;;;;;;;8.50;6.90;;;;;;;14.10;100.00;97647.96;110063;1274;22200;-91
2023/09/04 07:25:29;;;;;;;9.80;8.70;;;;;;;14.14;100.00;97648.95;110020;1274;137978;-92
2023/09/04 07:27:56;;;;;;;9.50;7.60;;;;;;;14.14;100.00;97657.63;110065;1277;22253;-91
2023/09/04 07:30:23;;;;;;;8.30;7.40;;;;;;;14.15;100.00;97665.19;110234;1271;22218;-91
2023/09/04 07:32:49;;;;;;;8.50;7.00;;;;;;;14.18;100.00;97669.52;109972;1274;138018;-91
2023/09/04 07:35:16;;;;;;;9.10;7.20;;;;;;;14.19;100.00;97672.39;110033;1279;22255;-91
2023/09/04 07:37:42;;;;;;;8.30;6.70;;;;;;;14.24;100.00;97677.61;109940;1274;138434;-91
2023/09/04 07:40:09;;;;;;;10.30;8.00;;;;;;;14.29;100.00;97676.30;110055;1277;22193;-91
2023/09/04 07:42:36;;;;;;;8.60;7.60;;;;;;;14.33;100.00;97677.89;109961;1279;138759;-90
2023/09/04 07:45:03;;;;;;;9.70;6.70;;;;;;;14.34;100.00;97681.12;110027;1277;22193;-91
2023/09/04 07:47:30;;;;;;;7.80;7.00;;;;;;;14.35;100.00;97686.57;110124;1278;22200;-91
2023/09/04 07:49:56;;;;;;;9.80;6.40;;;;;;;14.37;100.00;97689.98;109872;1280;138421;-90
2023/09/04 07:52:23;;;;;;;10.40;6.10;;;;;;;14.38;100.00;97691.93;109967;1277;22300;-91
2023/09/04 07:54:50;;;;;;;8.60;5.70;;;;;;;14.39;100.00;97692.52;109903;1279;138673;-90
2023/09/04 07:57:16;;;;;;;8.30;5.80;;;;;;;14.42;100.00;97697.11;110038;1278;22219;-90
2023/09/04 07:59:42;;;;;;;9.80;5.90;;;;;;;14.44;100.00;97702.83;109992;1273;22178;-91
2023/09/04 08:02:08;;;;;;;6.50;5.40;;;;;;;14.45;100.00;97706.06;109867;1277;138039;-90
2023/09/04 08:04:34;;;;;;;8.60;5.80;;;;;;;14.45;100.00;97710.83;109972;1277;22345;-91
2023/09/04 08:07:00;;;;;;;9.60;5.40;;;;;;;14.40;100.00;97718.23;109866;1271;138548;-90
2023/09/04 08:09:27;;;;;;;7.30;4.80;;;;;;;14.35;100.00;97722.45;109990;1271;22350;-90
2023/09/04 08:11:53;;;;;;;9.90;5.40;;;;;;;14.37;100.00;97721.89;110011;1270;22909;-90
2023/09/04 08:14:19;;;;;;;7.70;5.10;;;;;;;14.40;100.00;97718.72;110002;1276;138648;-91
2023/09/04 08:16:45;;;;;;;7.00;5.80;;;;;;;14.41;100.00;97720.35;110001;1278;22742;-91
2023/09/04 08:19:12;;;;;;;10.10;6.00;;;;;;;14.44;100.00;97721.86;109929;1271;139016;-91
2023/09/04 08:21:38;;;;;;;7.60;4.40;;;;;;;14.45;100.00;97725.42;110037;1279;22322;-91
2023/09/04 08:24:05;;;;;;;5.90;4.90;;;;;;;14.46;100.00;97724.42;109730;1274;430724;-90
2023/09/04 08:26:31;;;;;;;7.40;5.00;;;;;;;14.48;100.00;97731.58;109907;1265;138635;-91
2023/09/04 08:28:57;;;;;;;6.30;5.70;;;;;;;14.47;100.00;97738.61;110086;1271;22342;-91
2023/09/04 08:31:23;;;;;;;8.40;5.50;;;;;;;14.49;100.00;97737.92;109896;1279;139091;-91
2023/09/04 08:33:50;;;;;;;8.10;5.00;;;;;;;14.51;100.00;97735.77;110066;1274;22768;-91
2023/09/04 08:36:16;;;;;;;8.10;6.00;;;;;;;14.54;100.00;97728.21;109991;1273;22235;-91
2023/09/04 08:38:42;;;;;;;7.90;6.30;;;;;;;14.56;100.00;97730.50;109978;1272;138370;-91
2023/09/04 08:41:08;;;;;;;8.70;6.30;;;;;;;14.55;100.00;97726.90;109997;1276;22274;-91
2023/09/04 08:43:35;;;;;;;11.10;7.10;;;;;;;14.57;100.00;97725.08;109916;1280;137301;-92
2023/09/04 08:46:03;;;;;;;11.00;7.20;;;;;;;14.60;100.00;97728.63;110053;1277;22205;-91
2023/09/04 08:48:30;;;;;;;9.70;7.40;;;;;;;14.61;100.00;97726.71;110033;1274;22371;-90
2023/09/04 08:50:57;;;;;;;10.40;7.10;;;;;;;14.64;100.00;97725.86;110080;1277;22295;-91
2023/09/04 08:53:23;;;;;;;10.50;6.60;;;;;;;14.64;100.00;97718.89;110113;1275;22168;-91
2023/09/04 08:55:53;;;;;;;9.20;7.00;;;;;;;14.66;100.00;97723.16;109982;1274;138378;-91
2023/09/04 08:58:21;;;;;;;8.50;6.80;;;;;;;14.70;100.00;97720.33;110063;1271;22256;-91
2023/09/04 09:00:48;;;;;;;9.90;7.00;;;;;;;14.75;100.00;97721.65;109970;1277;138509;-91
2023/09/04 09:03:14;;;;;;;9.70;6.50;;;;;;;14.82;100.00;97720.85;110033;1278;22262;-91
2023/09/04 09:05:42;;;;;;;7.50;6.20;;;;;;;14.88;100.00;97714.95;110054;1271;22248;-91
2023/09/04 09:08:09;;;;;;;9.00;7.40;;;;;;;14.94;100.00;97717.70;109938;1278;138167;-91
2023/09/04 09:10:36;;;;;;;8.70;6.50;;;;;;;14.96;100.00;97715.41;110069;1274;22415;-91
2023/09/04 09:13:02;;;;;;;10.40;7.00;;;;;;;15.03;100.00;97720.48;109938;1277;138142;-91
2023/09/04 09:15:32;;;;;;;11.30;7.80;;;;;;;15.09;100.00;97723.10;110098;1279;22210;-91
2023/09/04 09:17:58;;;;;;;10.70;8.20;;;;;;;15.15;100.00;97718.50;110053;1272;22269;-91
2023/09/04 09:20:42;;;;;;;8.60;7.30;;;;;;;15.18;100.00;97720.48;109936;1274;138251;-91
2023/09/04 09:23:09;;;;;;;9.00;8.00;;;;;;;15.25;100.00;97722.30;109980;1276;22349;-91
2023/09/04 09:25:36;;;;;;;9.60;7.80;;;;;;;15.31;100.00;97717.90;109893;1271;138252;-91
2023/09/04 09:28:06;;;;;;;9.70;6.70;;;;;;;15.32;100.00;97717.11;110072;1276;22108;-91
2023/09/04 09:30:39;;;;;;;7.00;5.90;;;;;;;15.34;100.00;97715.12;109925;1271;138116;-91
2023/09/04 09:33:12;;;;;;;7.70;5.30;;;;;;;15.34;100.00;97713.42;110019;1275;22252;-91
2023/09/04 09:35:40;;;;;;;7.30;5.70;;;;;;;15.35;100.00;97713.83;110081;1279;22198;-91
2023/09/04 09:38:06;;;;;;;5.80;5.00;;;;;;;15.38;100.00;97712.98;109949;1279;138031;-89
2023/09/04 09:40:33;;;;;;;10.80;6.20;;;;;;;15.44;100.00;97716.77;110065;1273;22481;-90
2023/09/04 09:42:59;;;;;;;8.50;7.00;;;;;;;15.46;100.00;97714.28;110000;1274;138531;-91
2023/09/04 09:45:34;;;;;;;9.90;6.50;;;;;;;15.47;100.00;97713.83;110102;1280;22869;-91
2023/09/04 09:48:07;;;;;;;11.30;6.00;;;;;;;15.47;100.00;97712.38;110204;1279;22189;-91
2023/09/04 09:50:40;;;;;;;8.60;6.10;;;;;;;15.52;100.00;97708.19;109995;1274;138337;-90
2023/09/04 09:53:06;;;;;;;9.00;7.10;;;;;;;15.60;100.00;97706.31;110172;1273;22386;-91
2023/09/04 09:55:33;;;;;;;9.40;5.80;;;;;;;15.71;100.00;97703.39;109953;1279;138092;-91
2023/09/04 09:57:59;;;;;;;9.10;6.50;;;;;;;15.80;100.00;97702.96;110124;1279;23031;-91
2023/09/04 10:00:26;;;;;;;9.60;6.90;;;;;;;15.85;100.00;97699.69;110040;1279;22186;-91
2023/09/04 10:02:53;;;;;;;8.80;6.90;;;;;;;15.88;100.00;97697.90;109952;1279;137771;-91
2023/09/04 10:05:24;;;;;;;9.80;7.10;;;;;;;15.95;100.00;97694.39;110085;1275;22239;-91
2023/09/04 10:07:55;;;;;;;9.40;7.10;;;;;;;16.04;100.00;97696.00;109897;1280;138918;-91
2023/09/04 10:10:22;;;;;;;9.70;6.90;;;;;;;16.14;100.00;97695.67;110173;1275;22400;-90
2023/09/04 10:13:04;;;;;;;8.50;7.40;;;;;;;16.19;100.00;97694.02;109935;1280;138093;-90
2023/09/04 10:15:32;;;;;;;8.20;7.20;;;;;;;16.23;100.00;97689.02;110054;1279;22327;-90
2023/09/04 10:18:25;;;;;;;9.40;6.90;;;;;;;16.26;100.00;97692.14;110011;1276;22232;-91
2023/09/04 10:20:52;;;;;;;10.80;7.40;;;;;;;16.33;100.00;97691.03;109930;1275;138124;-91
2023/09/04 10:23:19;;;;;;;8.40;7.00;;;;;;;16.35;100.00;97691.29;110100;1279;22859;-91
2023/09/04 10:25:53;;;;;;;7.80;7.00;;;;;;;16.38;100.00;97686.39;109925;1275;138481;-90
2023/09/04 10:28:40;;;;;;;11.90;7.60;;;;;;;16.41;100.00;97691.99;110068;1274;22225;-90
2023/09/04 10:31:06;;;;;;;9.90;7.20;;;;;;;16.45;100.00;97691.05;109895;1273;138034;-90
2023/09/04 10:33:35;;;;;;;9.70;6.80;;;;;;;16.49;100.00;97688.98;110035;1273;22850;-90
2023/09/04 10:36:01;;;;;;;9.30;6.90;;;;;;;16.53;100.00;97686.46;110038;1277;22929;-91
2023/09/04 10:38:28;;;;;;;8.80;6.20;;;;;;;16.51;100.00;97681.77;109943;1271;138324;-90
2023/09/04 10:40:54;;;;;;;9.00;7.10;;;;;;;16.51;100.00;97678.42;110114;1279;22341;-91
2023/09/04 10:43:20;;;;;;;8.70;6.40;;;;;;;16.54;100.00;97679.29;109888;1275;138203;-91
2023/09/04 10:46:06;;;;;;;9.30;6.60;;;;;;;16.56;100.00;97681.29;110077;1277;22219;-91
2023/09/04 10:48:43;;;;;;;10.20;8.40;;;;;;;16.61;100.00;97684.70;109914;1275;138250;-91
2023/09/04 10:51:25;;;;;;;10.50;8.40;;;;;;;16.63;100.00;97686.77;109947;1279;22910;-90
2023/09/04 10:53:52;;;;;;;12.70;8.20;;;;;;;16.69;100.00;97682.85;110032;1271;22219;-91
2023/09/04 10:56:18;;;;;;;9.80;8.60;;;;;;;16.75;100.00;97681.54;109933;1281;138537;-91
2023/09/04 10:59:05;;;;;;;11.00;8.60;;;;;;;16.79;100.00;97669.73;110023;1279;22550;-90
2023/09/04 11:01:36;;;;;;;9.00;8.00;;;;;;;16.86;100.00;97672.61;109989;1274;138374;-90
2023/09/04 11:04:07;;;;;;;12.50;8.50;;;;;;;16.89;100.00;97671.31;110090;1280;22108;-91
2023/09/04 11:06:37;;;;;;;12.20;10.40;;;;;;;16.96;100.00;97671.34;109920;1279;139212;-90
2023/09/04 11:09:04;;;;;;;10.40;9.20;;;;;;;17.02;100.00;97666.56;109977;1277;22189;-90
2023/09/04 11:11:31;;;;;;;12.40;9.50;;;;;;;17.04;100.00;97664.91;110066;1277;22104;-90
2023/09/04 11:14:02;;;;;;;11.20;9.50;;;;;;;17.14;100.00;97667.17;109871;1277;138612;-90